Alora, Spain
Current Conditions -  °F | °C
As of 6:30 AM on Thursday 18 Dec 2014 (Local Time) from LEMG Reporting Station
Clear Clear  
Wind Chill: 57°   Ceiling: Unl
Heat Index: 57°   Visibility: 6mi
Dew Point: 43°   Wind: 14mph
Humidity: 59%   Direction: 280°W
Pressure: 30.24"   Gusts: NA
Location:  36.82°N, 4.71°W
Report Text: LEMG 180530Z 28012KT CAVOK 14/06 Q1024 NOSIG
Loading
Personal Weather Stations






























Interactive Weather Map New forecast layout! Learn more

10-Day Weather Forecast

Advertisements
Track Severe Weather on mobile